sensor_id;sensor_type;location;lat;lon;timestamp;pressure;altitude;pressure_sealevel;temperature;humidity
50732;BME280;36700;50.488;2.544;2023-08-06T00:00:48;100158.56;;;18.56;66.66
50732;BME280;36700;50.488;2.544;2023-08-06T00:03:14;100164.28;;;18.55;66.75
50732;BME280;36700;50.488;2.544;2023-08-06T00:05:43;100173.00;;;18.57;66.31
50732;BME280;36700;50.488;2.544;2023-08-06T00:08:09;100170.00;;;18.53;66.71
50732;BME280;36700;50.488;2.544;2023-08-06T00:10:35;100173.28;;;18.55;66.31
50732;BME280;36700;50.488;2.544;2023-08-06T00:13:00;100193.69;;;18.58;66.69
50732;BME280;36700;50.488;2.544;2023-08-06T00:15:26;100184.97;;;18.56;66.54
50732;BME280;36700;50.488;2.544;2023-08-06T00:17:52;100200.78;;;18.54;66.35
50732;BME280;36700;50.488;2.544;2023-08-06T00:20:18;100198.06;;;18.54;66.87
50732;BME280;36700;50.488;2.544;2023-08-06T00:22:44;100214.38;;;18.54;66.53
50732;BME280;36700;50.488;2.544;2023-08-06T00:25:10;100222.81;;;18.52;66.43
50732;BME280;36700;50.488;2.544;2023-08-06T00:27:36;100221.47;;;18.55;66.83
50732;BME280;36700;50.488;2.544;2023-08-06T00:30:03;100218.47;;;18.56;66.31
50732;BME280;36700;50.488;2.544;2023-08-06T00:32:29;100225.81;;;18.56;66.48
50732;BME280;36700;50.488;2.544;2023-08-06T00:34:55;100229.09;;;18.53;66.47
50732;BME280;36700;50.488;2.544;2023-08-06T00:37:20;100232.09;;;18.56;66.67
50732;BME280;36700;50.488;2.544;2023-08-06T00:39:46;100235.63;;;18.57;66.76
50732;BME280;36700;50.488;2.544;2023-08-06T00:42:12;100234.81;;;18.56;66.32
50732;BME280;36700;50.488;2.544;2023-08-06T00:44:38;100242.41;;;18.54;66.64
50732;BME280;36700;50.488;2.544;2023-08-06T00:47:06;100244.88;;;18.56;66.42
50732;BME280;36700;50.488;2.544;2023-08-06T00:49:34;100250.31;;;18.56;66.72
50732;BME280;36700;50.488;2.544;2023-08-06T00:52:01;100250.03;;;18.52;66.68
50732;BME280;36700;50.488;2.544;2023-08-06T00:54:28;100252.22;;;18.50;66.54
50732;BME280;36700;50.488;2.544;2023-08-06T00:56:55;100270.44;;;18.50;66.53
50732;BME280;36700;50.488;2.544;2023-08-06T00:59:21;100280.00;;;18.52;66.50
50732;BME280;36700;50.488;2.544;2023-08-06T01:01:47;100296.59;;;18.51;66.69
50732;BME280;36700;50.488;2.544;2023-08-06T01:04:13;100277.81;;;18.49;66.64
50732;BME280;36700;50.488;2.544;2023-08-06T01:06:44;100305.03;;;18.49;66.66
50732;BME280;36700;50.488;2.544;2023-08-06T01:09:21;100303.94;;;18.50;66.57
50732;BME280;36700;50.488;2.544;2023-08-06T01:11:57;100308.56;;;18.50;66.92
50732;BME280;36700;50.488;2.544;2023-08-06T01:14:30;100315.94;;;18.49;66.52
50732;BME280;36700;50.488;2.544;2023-08-06T01:16:59;100320.28;;;18.50;66.51
50732;BME280;36700;50.488;2.544;2023-08-06T01:19:27;100326.25;;;18.47;66.48
50732;BME280;36700;50.488;2.544;2023-08-06T01:21:53;100335.50;;;18.46;66.81
50732;BME280;36700;50.488;2.544;2023-08-06T01:24:19;100338.22;;;18.46;66.48
50732;BME280;36700;50.488;2.544;2023-08-06T01:27:04;100348.28;;;18.46;66.87
50732;BME280;36700;50.488;2.544;2023-08-06T01:29:35;100358.91;;;18.47;66.46
50732;BME280;36700;50.488;2.544;2023-08-06T01:32:04;100364.63;;;18.46;66.52
50732;BME280;36700;50.488;2.544;2023-08-06T01:34:31;100379.06;;;18.46;66.84
50732;BME280;36700;50.488;2.544;2023-08-06T01:36:59;100386.13;;;18.47;66.71
50732;BME280;36700;50.488;2.544;2023-08-06T01:39:26;100376.34;;;18.46;66.80
50732;BME280;36700;50.488;2.544;2023-08-06T01:41:52;100385.59;;;18.45;66.46
50732;BME280;36700;50.488;2.544;2023-08-06T01:44:18;100393.75;;;18.45;66.67
50732;BME280;36700;50.488;2.544;2023-08-06T01:46:44;100404.09;;;18.43;66.38
50732;BME280;36700;50.488;2.544;2023-08-06T01:49:10;100401.94;;;18.45;66.38
50732;BME280;36700;50.488;2.544;2023-08-06T01:51:36;100408.47;;;18.44;66.44
50732;BME280;36700;50.488;2.544;2023-08-06T01:54:02;100411.44;;;18.42;66.42
50732;BME280;36700;50.488;2.544;2023-08-06T01:56:28;100418.78;;;18.42;66.31
50732;BME280;36700;50.488;2.544;2023-08-06T01:58:54;100417.13;;;18.41;66.34
50732;BME280;36700;50.488;2.544;2023-08-06T02:01:20;100417.13;;;18.41;66.51
50732;BME280;36700;50.488;2.544;2023-08-06T02:03:45;100427.78;;;18.42;66.51
50732;BME280;36700;50.488;2.544;2023-08-06T02:06:12;100434.06;;;18.43;66.53
50732;BME280;36700;50.488;2.544;2023-08-06T02:08:38;100437.81;;;18.42;66.47
50732;BME280;36700;50.488;2.544;2023-08-06T02:11:05;100437.03;;;18.41;66.42
50732;BME280;36700;50.488;2.544;2023-08-06T02:13:31;100434.31;;;18.41;66.32
50732;BME280;36700;50.488;2.544;2023-08-06T02:15:57;100446.28;;;18.40;66.16
50732;BME280;36700;50.488;2.544;2023-08-06T02:18:22;100441.09;;;18.39;66.09
50732;BME280;36700;50.488;2.544;2023-08-06T02:20:58;100450.88;;;18.40;66.50
50732;BME280;36700;50.488;2.544;2023-08-06T02:23:24;100443.81;;;18.39;66.15
50732;BME280;36700;50.488;2.544;2023-08-06T02:26:17;100447.34;;;18.39;66.54
50732;BME280;36700;50.488;2.544;2023-08-06T02:28:43;100451.97;;;18.39;66.03
50732;BME280;36700;50.488;2.544;2023-08-06T02:31:08;100462.63;;;18.40;65.97
50732;BME280;36700;50.488;2.544;2023-08-06T02:33:34;100466.13;;;18.41;66.37
50732;BME280;36700;50.488;2.544;2023-08-06T02:36:01;100463.66;;;18.39;66.35
50732;BME280;36700;50.488;2.544;2023-08-06T02:38:29;100466.38;;;18.39;66.51
50732;BME280;36700;50.488;2.544;2023-08-06T02:40:55;100474.84;;;18.38;65.86
50732;BME280;36700;50.488;2.544;2023-08-06T02:43:21;100474.84;;;18.38;66.39
50732;BME280;36700;50.488;2.544;2023-08-06T02:45:46;100473.19;;;18.37;66.29
50732;BME280;36700;50.488;2.544;2023-08-06T02:48:12;100482.44;;;18.36;66.36
50732;BME280;36700;50.488;2.544;2023-08-06T02:50:40;100478.66;;;18.37;66.28
50732;BME280;36700;50.488;2.544;2023-08-06T02:53:07;100482.16;;;18.37;65.98
50732;BME280;36700;50.488;2.544;2023-08-06T02:55:33;100484.09;;;18.37;66.17
50732;BME280;36700;50.488;2.544;2023-08-06T02:58:00;100487.06;;;18.35;66.04
50732;BME280;36700;50.488;2.544;2023-08-06T03:00:26;100486.81;;;18.37;66.28
50732;BME280;36700;50.488;2.544;2023-08-06T03:02:52;100482.72;;;18.34;65.78
50732;BME280;36700;50.488;2.544;2023-08-06T03:05:19;100494.41;;;18.35;65.97
50732;BME280;36700;50.488;2.544;2023-08-06T03:07:45;100500.44;;;18.37;65.90
50732;BME280;36700;50.488;2.544;2023-08-06T03:10:10;100499.03;;;18.34;65.91
50732;BME280;36700;50.488;2.544;2023-08-06T03:12:36;100505.28;;;18.35;65.78
50732;BME280;36700;50.488;2.544;2023-08-06T03:15:03;100511.81;;;18.34;65.63
50732;BME280;36700;50.488;2.544;2023-08-06T03:17:28;100510.97;;;18.33;66.11
50732;BME280;36700;50.488;2.544;2023-08-06T03:19:54;100527.06;;;18.35;65.80
50732;BME280;36700;50.488;2.544;2023-08-06T03:22:20;100522.72;;;18.34;65.95
50732;BME280;36700;50.488;2.544;2023-08-06T03:24:50;100521.88;;;18.33;65.88
50732;BME280;36700;50.488;2.544;2023-08-06T03:27:16;100531.13;;;18.32;66.12
50732;BME280;36700;50.488;2.544;2023-08-06T03:29:42;100530.88;;;18.34;66.04
50732;BME280;36700;50.488;2.544;2023-08-06T03:32:08;100535.75;;;18.32;65.91
50732;BME280;36700;50.488;2.544;2023-08-06T03:34:34;100540.13;;;18.33;65.48
50732;BME280;36700;50.488;2.544;2023-08-06T03:36:59;100537.66;;;18.31;65.43
50732;BME280;36700;50.488;2.544;2023-08-06T03:39:26;100540.13;;;18.33;66.19
50732;BME280;36700;50.488;2.544;2023-08-06T03:41:52;100538.47;;;18.32;65.96
50732;BME280;36700;50.488;2.544;2023-08-06T03:44:18;100540.94;;;18.33;65.75
50732;BME280;36700;50.488;2.544;2023-08-06T03:46:43;100544.97;;;18.30;65.75
50732;BME280;36700;50.488;2.544;2023-08-06T03:49:09;100551.00;;;18.33;65.48
50732;BME280;36700;50.488;2.544;2023-08-06T03:51:35;100556.44;;;18.33;65.52
50732;BME280;36700;50.488;2.544;2023-08-06T03:54:01;100567.59;;;18.31;65.16
50732;BME280;36700;50.488;2.544;2023-08-06T03:56:27;100558.59;;;18.30;65.69
50732;BME280;36700;50.488;2.544;2023-08-06T03:58:53;100576.84;;;18.30;65.50
50732;BME280;36700;50.488;2.544;2023-08-06T04:01:19;100576.84;;;18.30;65.84
50732;BME280;36700;50.488;2.544;2023-08-06T04:03:45;100579.56;;;18.30;65.31
50732;BME280;36700;50.488;2.544;2023-08-06T04:06:11;100584.19;;;18.29;65.67
50732;BME280;36700;50.488;2.544;2023-08-06T04:08:37;100590.69;;;18.28;65.51
50732;BME280;36700;50.488;2.544;2023-08-06T04:11:03;100594.25;;;18.29;65.67
50732;BME280;36700;50.488;2.544;2023-08-06T04:13:29;100601.34;;;18.30;65.35
50732;BME280;36700;50.488;2.544;2023-08-06T04:15:55;100610.59;;;18.29;65.58
50732;BME280;36700;50.488;2.544;2023-08-06T04:18:21;100625.00;;;18.29;65.67
50732;BME280;36700;50.488;2.544;2023-08-06T04:20:47;100630.44;;;18.29;65.69
50732;BME280;36700;50.488;2.544;2023-08-06T04:23:15;100631.28;;;18.30;65.48
50732;BME280;36700;50.488;2.544;2023-08-06T04:25:41;100633.75;;;18.32;65.48
50732;BME280;36700;50.488;2.544;2023-08-06T04:28:07;100626.09;;;18.28;65.80
50732;BME280;36700;50.488;2.544;2023-08-06T04:30:33;100634.25;;;18.28;65.85
50732;BME280;36700;50.488;2.544;2023-08-06T04:32:59;100644.91;;;18.30;65.48
50732;BME280;36700;50.488;2.544;2023-08-06T04:35:25;100661.47;;;18.28;65.31
50732;BME280;36700;50.488;2.544;2023-08-06T04:37:51;100654.13;;;18.29;65.41
50732;BME280;36700;50.488;2.544;2023-08-06T04:40:17;100655.22;;;18.28;65.38
50732;BME280;36700;50.488;2.544;2023-08-06T04:42:43;100657.66;;;18.29;64.79
50732;BME280;36700;50.488;2.544;2023-08-06T04:45:09;100654.38;;;18.27;65.14
50732;BME280;36700;50.488;2.544;2023-08-06T04:47:35;100661.47;;;18.28;65.33
50732;BME280;36700;50.488;2.544;2023-08-06T04:50:01;100665.28;;;18.27;65.59
50732;BME280;36700;50.488;2.544;2023-08-06T04:52:27;100664.44;;;18.27;65.27
50732;BME280;36700;50.488;2.544;2023-08-06T04:54:55;100665.78;;;18.24;65.42
50732;BME280;36700;50.488;2.544;2023-08-06T04:57:21;100674.28;;;18.28;65.26
50732;BME280;36700;50.488;2.544;2023-08-06T04:59:47;100671.81;;;18.26;64.76
50732;BME280;36700;50.488;2.544;2023-08-06T05:02:13;100674.53;;;18.26;64.85
50732;BME280;36700;50.488;2.544;2023-08-06T05:04:39;100681.28;;;18.24;65.42
50732;BME280;36700;50.488;2.544;2023-08-06T05:07:05;100689.47;;;18.24;65.11
50732;BME280;36700;50.488;2.544;2023-08-06T05:09:32;100692.97;;;18.24;64.60
50732;BME280;36700;50.488;2.544;2023-08-06T05:12:00;100693.81;;;18.25;65.10
50732;BME280;36700;50.488;2.544;2023-08-06T05:14:26;100699.25;;;18.25;65.35
50732;BME280;36700;50.488;2.544;2023-08-06T05:16:52;100697.09;;;18.27;65.11
50732;BME280;36700;50.488;2.544;2023-08-06T05:19:18;100700.09;;;18.25;65.12
50732;BME280;36700;50.488;2.544;2023-08-06T05:21:44;100706.34;;;18.26;64.78
50732;BME280;36700;50.488;2.544;2023-08-06T05:24:10;100710.72;;;18.27;64.89
50732;BME280;36700;50.488;2.544;2023-08-06T05:26:36;100721.59;;;18.27;65.23
50732;BME280;36700;50.488;2.544;2023-08-06T05:29:02;100730.03;;;18.25;65.03
50732;BME280;36700;50.488;2.544;2023-08-06T05:31:28;100729.44;;;18.23;65.00
50732;BME280;36700;50.488;2.544;2023-08-06T05:33:55;100748.25;;;18.25;64.94
50732;BME280;36700;50.488;2.544;2023-08-06T05:36:21;100749.09;;;18.25;64.99
50732;BME280;36700;50.488;2.544;2023-08-06T05:38:47;100752.88;;;18.24;64.68
50732;BME280;36700;50.488;2.544;2023-08-06T05:41:13;100752.88;;;18.24;65.22
50732;BME280;36700;50.488;2.544;2023-08-06T05:43:39;100753.13;;;18.23;64.88
50732;BME280;36700;50.488;2.544;2023-08-06T05:46:05;100761.31;;;18.23;65.20
50732;BME280;36700;50.488;2.544;2023-08-06T05:48:31;100766.75;;;18.23;64.47
50732;BME280;36700;50.488;2.544;2023-08-06T05:50:57;100770.56;;;18.22;64.61
50732;BME280;36700;50.488;2.544;2023-08-06T05:53:24;100776.25;;;18.20;64.94
50732;BME280;36700;50.488;2.544;2023-08-06T05:55:50;100788.78;;;18.21;65.06
50732;BME280;36700;50.488;2.544;2023-08-06T05:58:16;100793.97;;;18.23;64.71
50732;BME280;36700;50.488;2.544;2023-08-06T06:00:42;100787.69;;;18.22;64.99
50732;BME280;36700;50.488;2.544;2023-08-06T06:03:08;100790.97;;;18.24;64.63
50732;BME280;36700;50.488;2.544;2023-08-06T06:05:37;100801.28;;;18.22;64.60
50732;BME280;36700;50.488;2.544;2023-08-06T06:08:03;100805.41;;;18.25;64.78
50732;BME280;36700;50.488;2.544;2023-08-06T06:10:29;100796.41;;;18.24;64.17
50732;BME280;36700;50.488;2.544;2023-08-06T06:12:55;100802.69;;;18.25;64.20
50732;BME280;36700;50.488;2.544;2023-08-06T06:15:21;100807.31;;;18.24;64.43
50732;BME280;36700;50.488;2.544;2023-08-06T06:17:47;100812.03;;;18.29;64.06
50732;BME280;36700;50.488;2.544;2023-08-06T06:20:13;100821.00;;;18.29;64.19
50732;BME280;36700;50.488;2.544;2023-08-06T06:22:38;100816.06;;;18.26;64.09
50732;BME280;36700;50.488;2.544;2023-08-06T06:25:05;100821.59;;;18.32;63.96
50732;BME280;36700;50.488;2.544;2023-08-06T06:27:31;100826.75;;;18.33;64.04
50732;BME280;36700;50.488;2.544;2023-08-06T06:29:57;100822.53;;;18.42;63.62
50732;BME280;36700;50.488;2.544;2023-08-06T06:32:23;100830.03;;;18.52;63.19
50732;BME280;36700;50.488;2.544;2023-08-06T06:34:49;100829.00;;;18.59;62.67
50732;BME280;36700;50.488;2.544;2023-08-06T06:37:15;100833.44;;;18.65;62.64
50732;BME280;36700;50.488;2.544;2023-08-06T06:39:41;100830.72;;;18.65;62.74
50732;BME280;36700;50.488;2.544;2023-08-06T06:42:06;100832.66;;;18.64;62.35
50732;BME280;36700;50.488;2.544;2023-08-06T06:44:33;100834.28;;;18.65;62.89
50732;BME280;36700;50.488;2.544;2023-08-06T06:46:58;100838.81;;;18.60;62.56
50732;BME280;36700;50.488;2.544;2023-08-06T06:49:24;100847.84;;;18.60;62.53
50732;BME280;36700;50.488;2.544;2023-08-06T06:51:50;100847.50;;;18.56;63.19
50732;BME280;36700;50.488;2.544;2023-08-06T06:54:16;100853.44;;;18.53;62.96
50732;BME280;36700;50.488;2.544;2023-08-06T06:56:42;100842.00;;;18.51;62.89
50732;BME280;36700;50.488;2.544;2023-08-06T06:59:08;100863.56;;;18.58;62.34
50732;BME280;36700;50.488;2.544;2023-08-06T07:01:34;100851.63;;;18.59;62.44
50732;BME280;36700;50.488;2.544;2023-08-06T07:04:00;100854.28;;;18.54;62.34
50732;BME280;36700;50.488;2.544;2023-08-06T07:06:31;100857.50;;;18.51;62.67
50732;BME280;36700;50.488;2.544;2023-08-06T07:08:57;100862.38;;;18.49;62.88
50732;BME280;36700;50.488;2.544;2023-08-06T07:11:23;100859.09;;;18.47;62.29
50732;BME280;36700;50.488;2.544;2023-08-06T07:13:50;100865.59;;;18.46;63.07
50732;BME280;36700;50.488;2.544;2023-08-06T07:16:21;100866.66;;;18.44;62.69
50732;BME280;36700;50.488;2.544;2023-08-06T07:18:47;100873.19;;;18.43;62.84
50732;BME280;36700;50.488;2.544;2023-08-06T07:21:13;100880.56;;;18.43;63.00
50732;BME280;36700;50.488;2.544;2023-08-06T07:23:38;100884.66;;;18.46;62.60
50732;BME280;36700;50.488;2.544;2023-08-06T07:26:04;100887.91;;;18.65;62.46
50732;BME280;36700;50.488;2.544;2023-08-06T07:28:30;100893.69;;;18.91;61.42
50732;BME280;36700;50.488;2.544;2023-08-06T07:30:56;100888.06;;;18.75;61.37
50732;BME280;36700;50.488;2.544;2023-08-06T07:33:22;100891.72;;;18.64;62.06
50732;BME280;36700;50.488;2.544;2023-08-06T07:35:48;100905.03;;;18.60;62.08
50732;BME280;36700;50.488;2.544;2023-08-06T07:38:14;100903.22;;;18.88;60.89
50732;BME280;36700;50.488;2.544;2023-08-06T07:40:40;100909.88;;;18.75;61.47
50732;BME280;36700;50.488;2.544;2023-08-06T07:43:06;100913.28;;;18.88;61.22
50732;BME280;36700;50.488;2.544;2023-08-06T07:45:33;100898.91;;;18.70;61.72
50732;BME280;36700;50.488;2.544;2023-08-06T07:47:59;100901.06;;;18.68;61.84
50732;BME280;36700;50.488;2.544;2023-08-06T07:50:25;100908.56;;;18.61;62.12
50732;BME280;36700;50.488;2.544;2023-08-06T07:52:51;100904.13;;;18.54;62.31
50732;BME280;36700;50.488;2.544;2023-08-06T07:55:17;100902.72;;;18.52;62.30
50732;BME280;36700;50.488;2.544;2023-08-06T07:57:43;100910.06;;;18.51;62.63
50732;BME280;36700;50.488;2.544;2023-08-06T08:00:09;100910.81;;;18.47;62.27
50732;BME280;36700;50.488;2.544;2023-08-06T08:02:35;100912.78;;;18.51;62.35
50732;BME280;36700;50.488;2.544;2023-08-06T08:05:01;100914.34;;;18.47;62.14
50732;BME280;36700;50.488;2.544;2023-08-06T08:07:27;100923.03;;;18.44;62.67
50732;BME280;36700;50.488;2.544;2023-08-06T08:09:56;100917.31;;;18.46;62.63
50732;BME280;36700;50.488;2.544;2023-08-06T08:12:22;100924.50;;;18.52;61.98
50732;BME280;36700;50.488;2.544;2023-08-06T08:14:48;100918.47;;;18.50;62.14
50732;BME280;36700;50.488;2.544;2023-08-06T08:17:14;100918.56;;;18.55;61.79
50732;BME280;36700;50.488;2.544;2023-08-06T08:19:40;100928.06;;;18.52;61.95
50732;BME280;36700;50.488;2.544;2023-08-06T08:22:07;100928.06;;;18.52;62.08
50732;BME280;36700;50.488;2.544;2023-08-06T08:24:33;100927.81;;;18.54;61.65
50732;BME280;36700;50.488;2.544;2023-08-06T08:26:59;100936.56;;;18.56;61.57
50732;BME280;36700;50.488;2.544;2023-08-06T08:29:25;100937.53;;;18.50;61.83
50732;BME280;36700;50.488;2.544;2023-08-06T08:31:51;100943.50;;;18.47;61.58
50732;BME280;36700;50.488;2.544;2023-08-06T08:34:17;100947.53;;;18.44;62.08
50732;BME280;36700;50.488;2.544;2023-08-06T08:36:43;100946.72;;;18.43;62.00
50732;BME280;36700;50.488;2.544;2023-08-06T08:39:09;100948.63;;;18.43;62.12
50732;BME280;36700;50.488;2.544;2023-08-06T08:41:37;100952.16;;;18.43;62.28
50732;BME280;36700;50.488;2.544;2023-08-06T08:44:05;100956.53;;;18.44;62.48
50732;BME280;36700;50.488;2.544;2023-08-06T08:46:33;100950.28;;;18.44;62.11
50732;BME280;36700;50.488;2.544;2023-08-06T08:49:02;100954.13;;;18.48;62.14
50732;BME280;36700;50.488;2.544;2023-08-06T08:51:29;100960.97;;;18.51;61.97
50732;BME280;36700;50.488;2.544;2023-08-06T08:53:55;100966.19;;;18.52;62.02
50732;BME280;36700;50.488;2.544;2023-08-06T08:56:23;100962.38;;;18.53;62.02
50732;BME280;36700;50.488;2.544;2023-08-06T08:58:50;100973.50;;;18.52;61.66
50732;BME280;36700;50.488;2.544;2023-08-06T09:01:16;100971.06;;;18.50;61.80
50732;BME280;36700;50.488;2.544;2023-08-06T09:03:43;100981.13;;;18.50;62.16
50732;BME280;36700;50.488;2.544;2023-08-06T09:06:11;100970.22;;;18.50;62.10
50732;BME280;36700;50.488;2.544;2023-08-06T09:08:51;100976.22;;;18.52;61.92
50732;BME280;36700;50.488;2.544;2023-08-06T09:11:21;100980.31;;;18.49;61.82
50732;BME280;36700;50.488;2.544;2023-08-06T09:13:47;100981.13;;;18.50;62.01
50732;BME280;36700;50.488;2.544;2023-08-06T09:16:13;100986.09;;;18.53;62.02
50732;BME280;36700;50.488;2.544;2023-08-06T09:18:39;100982.53;;;18.52;62.11
50732;BME280;36700;50.488;2.544;2023-08-06T09:21:05;100982.53;;;18.52;61.61
50732;BME280;36700;50.488;2.544;2023-08-06T09:23:31;100997.44;;;18.50;62.26
50732;BME280;36700;50.488;2.544;2023-08-06T09:25:59;100993.91;;;18.49;62.38
50732;BME280;36700;50.488;2.544;2023-08-06T09:28:37;101000.75;;;18.52;62.02
50732;BME280;36700;50.488;2.544;2023-08-06T09:31:08;100992.34;;;18.53;61.54
50732;BME280;36700;50.488;2.544;2023-08-06T09:33:36;101003.22;;;18.53;61.80
50732;BME280;36700;50.488;2.544;2023-08-06T09:36:11;100990.44;;;18.54;61.81
50732;BME280;36700;50.488;2.544;2023-08-06T09:38:38;101008.19;;;18.56;61.54
50732;BME280;36700;50.488;2.544;2023-08-06T09:41:07;101012.56;;;18.57;61.58
50732;BME280;36700;50.488;2.544;2023-08-06T09:43:41;101021.81;;;18.56;61.80
50732;BME280;36700;50.488;2.544;2023-08-06T09:46:11;101018.75;;;18.53;62.11
50732;BME280;36700;50.488;2.544;2023-08-06T09:48:39;101016.03;;;18.53;61.70
50732;BME280;36700;50.488;2.544;2023-08-06T09:51:08;101025.00;;;18.53;61.39
50732;BME280;36700;50.488;2.544;2023-08-06T09:53:34;101021.47;;;18.53;61.82
50732;BME280;36700;50.488;2.544;2023-08-06T09:56:01;101031.53;;;18.52;61.68
50732;BME280;36700;50.488;2.544;2023-08-06T09:58:27;101028.56;;;18.54;62.04
50732;BME280;36700;50.488;2.544;2023-08-06T10:00:54;101024.78;;;18.55;61.85
50732;BME280;36700;50.488;2.544;2023-08-06T10:03:20;101022.53;;;18.52;61.50
50732;BME280;36700;50.488;2.544;2023-08-06T10:05:48;101025.84;;;18.54;61.96
50732;BME280;36700;50.488;2.544;2023-08-06T10:08:14;101032.94;;;18.55;61.53
50732;BME280;36700;50.488;2.544;2023-08-06T10:10:40;101028.56;;;18.54;61.82
50732;BME280;36700;50.488;2.544;2023-08-06T10:13:07;101028.34;;;18.55;61.59
50732;BME280;36700;50.488;2.544;2023-08-06T10:15:33;101028.81;;;18.52;61.46
50732;BME280;36700;50.488;2.544;2023-08-06T10:18:02;101043.28;;;18.53;61.52
50732;BME280;36700;50.488;2.544;2023-08-06T10:20:33;101048.72;;;18.53;61.66
50732;BME280;36700;50.488;2.544;2023-08-06T10:23:01;101033.19;;;18.53;61.31
50732;BME280;36700;50.488;2.544;2023-08-06T10:25:30;101047.88;;;18.52;61.86
50732;BME280;36700;50.488;2.544;2023-08-06T10:27:57;101042.44;;;18.52;61.50
50732;BME280;36700;50.488;2.544;2023-08-06T10:30:32;101050.34;;;18.54;61.32
50732;BME280;36700;50.488;2.544;2023-08-06T10:33:00;101053.88;;;18.54;61.75
50732;BME280;36700;50.488;2.544;2023-08-06T10:35:31;101042.75;;;18.56;61.83
50732;BME280;36700;50.488;2.544;2023-08-06T10:40:32;101056.13;;;18.57;61.50
50732;BME280;36700;50.488;2.544;2023-08-06T10:43:02;101057.22;;;18.56;61.22
50732;BME280;36700;50.488;2.544;2023-08-06T10:45:28;101061.25;;;18.54;61.21
50732;BME280;36700;50.488;2.544;2023-08-06T10:47:56;101059.34;;;18.54;61.53
50732;BME280;36700;50.488;2.544;2023-08-06T10:50:23;101063.97;;;18.54;61.58
50732;BME280;36700;50.488;2.544;2023-08-06T10:52:50;101064.53;;;18.56;61.23
50732;BME280;36700;50.488;2.544;2023-08-06T10:55:29;101070.22;;;18.54;61.37
50732;BME280;36700;50.488;2.544;2023-08-06T10:57:55;101072.72;;;18.56;61.42
50732;BME280;36700;50.488;2.544;2023-08-06T11:00:22;101072.72;;;18.56;61.06
50732;BME280;36700;50.488;2.544;2023-08-06T11:02:53;101068.59;;;18.53;61.03
50732;BME280;36700;50.488;2.544;2023-08-06T11:05:19;101084.69;;;18.55;60.95
50732;BME280;36700;50.488;2.544;2023-08-06T11:07:45;101080.09;;;18.55;61.19
50732;BME280;36700;50.488;2.544;2023-08-06T11:10:12;101079.81;;;18.57;61.26
50732;BME280;36700;50.488;2.544;2023-08-06T11:12:39;101084.44;;;18.56;61.41
50732;BME280;36700;50.488;2.544;2023-08-06T11:15:05;101088.81;;;18.57;61.17
50732;BME280;36700;50.488;2.544;2023-08-06T11:17:33;101084.69;;;18.55;61.14
50732;BME280;36700;50.488;2.544;2023-08-06T11:20:20;101092.84;;;18.55;60.90
50732;BME280;36700;50.488;2.544;2023-08-06T11:22:46;101100.19;;;18.54;61.44
50732;BME280;36700;50.488;2.544;2023-08-06T11:25:12;101101.88;;;18.55;61.20
50732;BME280;36700;50.488;2.544;2023-08-06T11:27:38;101092.63;;;18.56;61.28
50732;BME280;36700;50.488;2.544;2023-08-06T11:30:05;101090.97;;;18.55;60.66
50732;BME280;36700;50.488;2.544;2023-08-06T11:32:31;101099.16;;;18.55;61.36
50732;BME280;36700;50.488;2.544;2023-08-06T11:34:58;101099.94;;;18.56;61.29
50732;BME280;36700;50.488;2.544;2023-08-06T11:37:24;101097.22;;;18.56;61.00
50732;BME280;36700;50.488;2.544;2023-08-06T11:39:51;101105.16;;;18.57;60.85
50732;BME280;36700;50.488;2.544;2023-08-06T11:42:17;101101.34;;;18.59;61.25
50732;BME280;36700;50.488;2.544;2023-08-06T11:44:43;101104.31;;;18.57;60.43
50732;BME280;36700;50.488;2.544;2023-08-06T11:47:15;101102.19;;;18.59;60.55
50732;BME280;36700;50.488;2.544;2023-08-06T11:49:46;101098.63;;;18.59;60.13
50732;BME280;36700;50.488;2.544;2023-08-06T11:52:15;101116.06;;;18.57;60.18
50732;BME280;36700;50.488;2.544;2023-08-06T11:54:42;101109.19;;;18.55;60.67
50732;BME280;36700;50.488;2.544;2023-08-06T11:57:08;101121.41;;;18.52;60.70
50732;BME280;36700;50.488;2.544;2023-08-06T11:59:34;101121.75;;;18.56;60.49
50732;BME280;36700;50.488;2.544;2023-08-06T12:02:04;101116.88;;;18.58;61.07
50732;BME280;36700;50.488;2.544;2023-08-06T12:05:03;101108.69;;;18.58;60.54
50732;BME280;36700;50.488;2.544;2023-08-06T12:07:37;101117.13;;;18.56;60.48
50732;BME280;36700;50.488;2.544;2023-08-06T12:10:04;101129.91;;;18.56;60.23
50732;BME280;36700;50.488;2.544;2023-08-06T12:12:30;101132.06;;;18.54;60.84
50732;BME280;36700;50.488;2.544;2023-08-06T12:14:56;101135.34;;;18.56;60.60
50732;BME280;36700;50.488;2.544;2023-08-06T12:17:24;101139.16;;;18.55;60.81
50732;BME280;36700;50.488;2.544;2023-08-06T12:19:50;101130.16;;;18.54;60.37
50732;BME280;36700;50.488;2.544;2023-08-06T12:22:16;101129.09;;;18.55;60.17
50732;BME280;36700;50.488;2.544;2023-08-06T12:24:43;101127.19;;;18.56;60.18
50732;BME280;36700;50.488;2.544;2023-08-06T12:27:09;101132.41;;;18.57;60.41
50732;BME280;36700;50.488;2.544;2023-08-06T12:29:47;101129.44;;;18.59;60.55
50732;BME280;36700;50.488;2.544;2023-08-06T12:32:13;101131.31;;;18.59;60.41
50732;BME280;36700;50.488;2.544;2023-08-06T12:34:40;101132.16;;;18.59;60.27
50732;BME280;36700;50.488;2.544;2023-08-06T12:37:07;101131.31;;;18.59;60.01
50732;BME280;36700;50.488;2.544;2023-08-06T12:39:34;101143.28;;;18.57;60.38
50732;BME280;36700;50.488;2.544;2023-08-06T12:42:01;101146.59;;;18.60;60.14
50732;BME280;36700;50.488;2.544;2023-08-06T12:44:27;101154.75;;;18.60;60.14
50732;BME280;36700;50.488;2.544;2023-08-06T12:46:53;101144.09;;;18.58;59.49
50732;BME280;36700;50.488;2.544;2023-08-06T12:49:20;101139.25;;;18.60;59.59
50732;BME280;36700;50.488;2.544;2023-08-06T12:51:50;101141.97;;;18.60;59.57